createdAt,value
2022-12-19T00:02:33.534Z,101820.0
2022-12-19T00:07:33.459Z,101820.0
2022-12-19T00:12:33.459Z,101820.0
2022-12-19T00:17:34.887Z,101830.0
2022-12-19T00:22:33.459Z,101830.0
2022-12-19T00:27:33.470Z,101810.0
2022-12-19T00:32:33.462Z,101800.0
2022-12-19T00:37:33.461Z,101800.0
2022-12-19T00:42:33.469Z,101780.0
2022-12-19T00:47:33.467Z,101750.0
2022-12-19T00:52:33.820Z,101750.0
2022-12-19T00:57:33.469Z,101710.0
2022-12-19T01:02:33.634Z,101720.0
2022-12-19T01:07:33.475Z,101710.0
2022-12-19T01:12:33.473Z,101730.0
2022-12-19T01:17:33.481Z,101710.0
2022-12-19T01:22:33.478Z,101710.0
2022-12-19T01:27:33.479Z,101720.0
2022-12-19T01:32:34.230Z,101710.0
2022-12-19T01:37:33.491Z,101700.0
2022-12-19T01:42:33.661Z,101690.0
2022-12-19T01:47:33.479Z,101670.0
2022-12-19T01:52:33.484Z,101690.0
2022-12-19T01:57:34.314Z,101680.0
2022-12-19T02:02:33.640Z,101680.0
2022-12-19T02:07:33.460Z,101660.0
2022-12-19T02:12:33.468Z,101670.0
2022-12-19T02:17:33.578Z,101650.0
2022-12-19T02:22:33.469Z,101640.0
2022-12-19T02:27:40.510Z,101640.0
2022-12-19T02:37:33.481Z,101630.0
2022-12-19T02:42:33.405Z,101640.0
2022-12-19T02:47:33.495Z,101630.0
2022-12-19T02:52:33.496Z,101630.0
2022-12-19T02:57:33.397Z,101610.0
2022-12-19T03:02:33.460Z,101600.0
2022-12-19T03:07:33.414Z,101600.0
2022-12-19T03:12:33.412Z,101590.0
2022-12-19T03:17:33.430Z,101580.0
2022-12-19T03:22:33.531Z,101590.0
2022-12-19T03:27:33.439Z,101580.0
2022-12-19T03:32:33.429Z,101600.0
2022-12-19T03:37:33.438Z,101580.0
2022-12-19T03:42:33.428Z,101580.0
2022-12-19T03:47:33.434Z,101570.0
2022-12-19T03:52:33.448Z,101560.0
2022-12-19T03:57:33.449Z,101570.0
2022-12-19T04:02:33.450Z,101550.0
2022-12-19T04:07:33.447Z,101550.0
2022-12-19T04:12:33.440Z,101550.0
2022-12-19T04:17:33.453Z,101550.0
2022-12-19T04:22:33.447Z,101540.0
2022-12-19T04:27:33.571Z,101540.0
2022-12-19T04:32:33.451Z,101530.0
2022-12-19T04:37:33.452Z,101530.0
2022-12-19T04:42:33.576Z,101530.0
2022-12-19T04:47:33.459Z,101510.0
2022-12-19T04:52:33.469Z,101520.0
2022-12-19T04:57:33.454Z,101510.0
2022-12-19T05:02:33.582Z,101510.0
2022-12-19T05:07:33.460Z,101510.0
2022-12-19T05:12:33.591Z,101510.0
2022-12-19T05:17:33.566Z,101510.0
2022-12-19T05:22:33.472Z,101520.0
2022-12-19T05:27:33.565Z,101500.0
2022-12-19T05:32:33.564Z,101500.0
2022-12-19T05:37:33.468Z,101510.0
2022-12-19T05:42:33.595Z,101500.0
2022-12-19T05:47:33.602Z,101500.0
2022-12-19T05:52:33.570Z,101490.0
2022-12-19T05:57:33.567Z,101480.0
2022-12-19T06:02:33.849Z,101480.0
2022-12-19T06:07:33.574Z,101480.0
2022-12-19T06:12:33.593Z,101480.0
2022-12-19T06:17:33.585Z,101500.0
2022-12-19T06:22:33.582Z,101490.0
2022-12-19T06:27:33.581Z,101480.0
2022-12-19T06:32:38.630Z,101480.0
2022-12-19T06:37:33.592Z,101490.0
2022-12-19T06:42:33.584Z,101490.0
2022-12-19T06:47:33.611Z,101490.0
2022-12-19T06:52:33.648Z,101500.0
2022-12-19T06:57:33.595Z,101490.0
2022-12-19T07:02:33.673Z,101500.0
2022-12-19T07:07:33.596Z,101500.0
2022-12-19T07:12:33.625Z,101490.0
2022-12-19T07:17:33.605Z,101510.0
2022-12-19T07:22:33.672Z,101500.0
2022-12-19T07:27:36.422Z,101500.0
2022-12-19T07:32:33.602Z,101510.0
2022-12-19T07:37:33.611Z,101510.0
2022-12-19T07:42:33.608Z,101500.0
2022-12-19T07:47:33.617Z,101500.0
2022-12-19T07:52:33.617Z,101510.0
2022-12-19T07:57:33.624Z,101500.0
2022-12-19T08:02:33.796Z,101520.0
2022-12-19T08:07:33.619Z,101510.0
2022-12-19T08:12:33.619Z,101520.0
2022-12-19T08:17:33.711Z,101530.0
2022-12-19T08:22:33.626Z,101530.0
2022-12-19T08:27:33.637Z,101520.0
2022-12-19T08:32:33.624Z,101530.0
2022-12-19T08:37:33.809Z,101520.0
2022-12-19T08:42:33.720Z,101530.0
2022-12-19T08:47:33.636Z,101510.0
2022-12-19T08:52:33.648Z,101520.0
2022-12-19T08:57:33.719Z,101520.0
2022-12-19T09:02:33.804Z,101530.0
2022-12-19T09:07:33.641Z,101540.0
2022-12-19T09:12:33.640Z,101530.0
2022-12-19T09:17:33.644Z,101530.0
2022-12-19T09:22:33.646Z,101530.0
2022-12-19T09:28:25.253Z,101540.0
2022-12-19T09:32:33.742Z,101540.0
2022-12-19T09:37:33.684Z,101540.0
2022-12-19T09:42:41.702Z,101550.0
2022-12-19T09:47:33.654Z,101540.0
2022-12-19T09:52:33.671Z,101550.0
2022-12-19T09:57:33.668Z,101550.0
2022-12-19T10:02:33.972Z,101540.0
2022-12-19T10:08:07.145Z,101540.0
2022-12-19T10:12:51.422Z,101550.0
2022-12-19T10:17:33.679Z,101560.0
2022-12-19T10:22:33.673Z,101560.0
2022-12-19T10:27:33.681Z,101550.0
2022-12-19T10:32:33.805Z,101550.0
2022-12-19T10:37:49.991Z,101540.0
2022-12-19T10:42:33.681Z,101550.0
2022-12-19T10:47:33.763Z,101530.0
2022-12-19T10:52:33.701Z,101530.0
2022-12-19T10:57:33.684Z,101540.0
2022-12-19T11:02:33.808Z,101530.0
2022-12-19T11:07:33.704Z,101530.0
2022-12-19T11:15:53.301Z,101540.0
2022-12-19T11:27:35.458Z,101530.0
2022-12-19T11:29:19.746Z,101520.0
2022-12-19T11:29:32.148Z,101510.0
2022-12-19T11:32:44.476Z,101510.0
2022-12-19T11:37:33.696Z,101510.0
2022-12-19T11:42:33.716Z,101510.0
2022-12-19T11:47:33.703Z,101510.0
2022-12-19T11:57:33.737Z,101500.0
2022-12-19T12:02:33.713Z,101480.0
2022-12-19T12:09:48.724Z,101480.0
2022-12-19T12:20:49.044Z,101480.0
2022-12-19T12:30:59.080Z,101480.0
2022-12-19T12:31:43.764Z,101480.0
2022-12-19T12:31:58.825Z,101480.0
2022-12-19T12:35:42.530Z,101470.0
2022-12-19T12:42:33.737Z,101450.0
2022-12-19T12:47:33.725Z,101450.0
2022-12-19T12:52:33.745Z,101460.0
2022-12-19T12:57:36.169Z,101460.0
2022-12-19T13:02:33.986Z,101460.0
2022-12-19T13:07:33.918Z,101460.0
2022-12-19T13:12:33.738Z,101450.0
2022-12-19T13:17:33.732Z,101450.0
2022-12-19T13:22:33.748Z,101430.0
2022-12-19T13:27:33.739Z,101410.0
2022-12-19T13:32:34.486Z,101390.0
2022-12-19T13:40:01.314Z,101380.0
2022-12-19T13:42:33.647Z,101370.0
2022-12-19T13:47:33.803Z,101370.0
2022-12-19T13:52:33.758Z,101350.0
2022-12-19T13:57:33.753Z,101350.0
2022-12-19T14:02:45.297Z,101360.0
2022-12-19T14:07:37.083Z,101350.0
2022-12-19T14:13:44.374Z,101350.0
2022-12-19T14:17:33.757Z,101360.0
2022-12-19T14:22:33.856Z,101340.0
2022-12-19T14:28:17.342Z,101340.0
2022-12-19T14:33:49.764Z,101320.0
2022-12-19T14:39:19.763Z,101320.0
2022-12-19T14:43:57.276Z,101340.0
2022-12-19T14:52:51.478Z,101330.0
2022-12-19T14:54:52.672Z,101350.0
2022-12-19T14:58:52.466Z,101330.0
2022-12-19T15:02:34.393Z,101320.0
2022-12-19T15:07:33.781Z,101320.0
2022-12-19T15:14:54.846Z,101350.0
2022-12-19T15:17:33.676Z,101340.0
2022-12-19T15:22:33.684Z,101330.0
2022-12-19T15:27:33.847Z,101330.0
2022-12-19T15:32:33.834Z,101340.0
2022-12-19T15:37:33.785Z,101350.0
2022-12-19T15:42:33.790Z,101370.0
2022-12-19T15:47:33.800Z,101370.0
2022-12-19T15:52:33.792Z,101380.0
2022-12-19T15:57:33.806Z,101380.0
2022-12-19T16:03:21.272Z,101370.0
2022-12-19T16:07:33.804Z,101370.0
2022-12-19T16:12:33.793Z,101380.0
2022-12-19T16:17:33.803Z,101370.0
2022-12-19T16:22:33.804Z,101360.0
2022-12-19T16:27:33.804Z,101370.0
2022-12-19T16:32:33.814Z,101370.0
2022-12-19T16:37:33.712Z,101380.0
2022-12-19T16:42:33.807Z,101370.0
2022-12-19T16:47:33.863Z,101370.0
2022-12-19T16:52:42.766Z,101380.0
2022-12-19T16:57:33.820Z,101390.0
2022-12-19T17:02:33.997Z,101390.0
2022-12-19T17:07:33.815Z,101390.0
2022-12-19T17:17:33.819Z,101360.0
2022-12-19T17:22:33.823Z,101360.0
2022-12-19T17:27:33.824Z,101370.0
2022-12-19T17:32:33.982Z,101370.0
2022-12-19T17:37:33.929Z,101370.0
2022-12-19T17:42:37.792Z,101360.0
2022-12-19T17:47:33.744Z,101360.0
2022-12-19T17:52:33.865Z,101360.0
2022-12-19T17:57:33.734Z,101360.0
2022-12-19T18:02:34.047Z,101350.0
2022-12-19T18:07:33.840Z,101360.0
2022-12-19T18:12:33.817Z,101350.0
2022-12-19T18:17:33.742Z,101360.0
2022-12-19T18:22:33.745Z,101350.0
2022-12-19T18:27:33.751Z,101350.0
2022-12-19T18:32:33.844Z,101350.0
2022-12-19T18:37:33.757Z,101370.0
2022-12-19T18:42:33.749Z,101390.0
2022-12-19T18:47:33.763Z,101380.0
2022-12-19T18:52:33.780Z,101380.0
2022-12-19T18:57:33.763Z,101390.0
2022-12-19T19:02:34.090Z,101380.0
2022-12-19T19:07:33.758Z,101370.0
2022-12-19T19:12:33.880Z,101370.0
2022-12-19T19:17:33.897Z,101370.0
2022-12-19T19:22:33.763Z,101360.0
2022-12-19T19:27:33.798Z,101370.0
2022-12-19T19:32:33.773Z,101390.0
2022-12-19T19:37:33.764Z,101380.0
2022-12-19T19:42:33.775Z,101380.0
2022-12-19T19:47:33.773Z,101390.0
2022-12-19T19:52:33.773Z,101390.0
2022-12-19T19:57:33.784Z,101400.0
2022-12-19T20:02:34.003Z,101400.0
2022-12-19T20:07:33.887Z,101400.0
2022-12-19T20:12:33.784Z,101410.0
2022-12-19T20:17:33.881Z,101420.0
2022-12-19T20:22:33.789Z,101420.0
2022-12-19T20:27:33.794Z,101410.0
2022-12-19T20:32:33.792Z,101400.0
2022-12-19T20:37:33.792Z,101400.0
2022-12-19T20:42:33.793Z,101400.0
2022-12-19T20:47:33.795Z,101410.0
2022-12-19T20:52:33.814Z,101400.0
2022-12-19T20:57:33.811Z,101410.0
2022-12-19T21:03:17.299Z,101410.0
2022-12-19T21:07:33.801Z,101420.0
2022-12-19T21:12:33.907Z,101420.0
2022-12-19T21:17:33.806Z,101430.0
2022-12-19T21:22:33.807Z,101430.0
2022-12-19T21:27:33.971Z,101420.0
2022-12-19T21:32:33.815Z,101420.0
2022-12-19T21:37:43.331Z,101420.0
2022-12-19T21:42:33.914Z,101420.0
2022-12-19T21:47:33.907Z,101410.0
2022-12-19T21:52:33.836Z,101410.0
2022-12-19T21:57:33.819Z,101400.0
2022-12-19T22:02:34.128Z,101400.0
2022-12-19T22:07:33.938Z,101390.0
2022-12-19T22:12:33.821Z,101400.0
2022-12-19T22:17:33.823Z,101400.0
2022-12-19T22:22:33.921Z,101400.0
2022-12-19T22:27:33.830Z,101400.0
2022-12-19T22:32:33.836Z,101380.0
2022-12-19T22:37:34.056Z,101370.0
2022-12-19T22:42:33.931Z,101360.0
2022-12-19T22:47:33.944Z,101360.0
2022-12-19T22:52:33.963Z,101350.0
2022-12-19T22:57:33.937Z,101350.0
2022-12-19T23:02:34.189Z,101350.0
2022-12-19T23:07:33.938Z,101360.0
2022-12-19T23:12:33.937Z,101360.0
2022-12-19T23:17:33.945Z,101360.0
2022-12-19T23:22:33.952Z,101350.0
2022-12-19T23:27:33.946Z,101360.0
2022-12-19T23:32:33.955Z,101350.0
2022-12-19T23:37:33.960Z,101350.0
2022-12-19T23:42:34.093Z,101350.0
2022-12-19T23:47:33.961Z,101340.0
2022-12-19T23:52:33.984Z,101340.0
2022-12-19T23:57:33.960Z,101330.0
